Time;durP1;ratioP1;P1;durP2;ratioP2;P2;SDS_P1;SDS_P2;PMS_P1;PMS_P2;Temp;Humidity;BMP_temperature;BMP_pressure;BME280_temperature;BME280_humidity;BME280_pressure;Samples;Min_cycle;Max_cycle;Signal;HPM_P1;HPM_P2
2023/08/10 00:00:00;;;;;;;3.25;0.60;;;19.80;93.10;;;;;;5054295;28;20025;-80
2023/08/10 00:02:26;;;;;;;1.88;0.60;;;19.80;93.20;;;;;;5053952;28;20029;-80
2023/08/10 00:04:52;;;;;;;1.73;0.50;;;19.80;93.20;;;;;;5053956;28;20503;-80
2023/08/10 00:07:18;;;;;;;1.20;0.60;;;19.80;93.30;;;;;;5053265;28;20362;-80
2023/08/10 00:09:43;;;;;;;1.10;0.40;;;19.80;93.30;;;;;;5053500;28;20040;-80
2023/08/10 00:12:09;;;;;;;3.95;0.40;;;19.80;93.30;;;;;;5052965;28;20051;-81
2023/08/10 00:14:35;;;;;;;1.10;0.30;;;19.80;93.40;;;;;;5054601;28;20461;-81
2023/08/10 00:17:00;;;;;;;2.67;0.40;;;19.80;93.40;;;;;;5054232;28;20102;-81
2023/08/10 00:19:26;;;;;;;1.05;0.40;;;19.80;93.40;;;;;;5054731;28;20434;-81
2023/08/10 00:21:52;;;;;;;1.40;0.50;;;19.80;93.40;;;;;;5053910;28;20032;-81
2023/08/10 00:24:17;;;;;;;1.45;0.40;;;19.80;93.40;;;;;;5052354;28;20029;-81
2023/08/10 00:26:43;;;;;;;1.35;0.30;;;19.80;93.40;;;;;;5053615;28;20036;-81
2023/08/10 00:29:09;;;;;;;1.75;0.50;;;19.80;93.40;;;;;;5053856;28;20350;-81
2023/08/10 00:31:34;;;;;;;0.80;0.30;;;19.80;93.40;;;;;;5053865;28;20386;-81
2023/08/10 00:34:00;;;;;;;2.17;0.30;;;19.80;93.40;;;;;;5053640;28;20116;-80
2023/08/10 00:36:25;;;;;;;2.47;0.32;;;19.80;93.40;;;;;;5053423;28;20104;-80
2023/08/10 00:38:51;;;;;;;1.48;0.50;;;19.80;93.50;;;;;;5053766;28;20374;-81
2023/08/10 00:41:17;;;;;;;2.85;0.32;;;19.80;93.40;;;;;;5054283;28;20116;-80
2023/08/10 00:43:42;;;;;;;3.22;0.60;;;19.80;93.40;;;;;;5053670;28;20029;-81
2023/08/10 00:46:11;;;;;;;2.42;0.52;;;19.80;93.40;;;;;;5052374;28;20033;-80
2023/08/10 00:48:36;;;;;;;3.10;0.45;;;19.80;93.40;;;;;;5053677;28;20051;-80
2023/08/10 00:51:02;;;;;;;2.08;0.57;;;19.80;93.50;;;;;;5053283;28;20033;-81
2023/08/10 00:53:28;;;;;;;1.70;0.47;;;19.80;93.50;;;;;;5068924;28;20431;-81
2023/08/10 00:55:56;;;;;;;2.80;0.38;;;19.80;93.50;;;;;;5053508;28;20120;-81
2023/08/10 00:58:22;;;;;;;2.47;0.43;;;19.80;93.60;;;;;;5053775;28;20106;-81
2023/08/10 01:00:48;;;;;;;3.22;0.63;;;19.80;93.60;;;;;;5053691;28;20116;-81
2023/08/10 01:03:15;;;;;;;2.03;0.45;;;19.70;93.60;;;;;;5052508;28;20028;-81
2023/08/10 01:05:54;;;;;;;1.50;0.38;;;19.70;93.70;;;;;;5053511;28;20056;-81
2023/08/10 01:08:44;;;;;;;2.78;0.50;;;19.70;93.80;;;;;;5053242;28;20063;-81
2023/08/10 01:11:51;;;;;;;1.40;0.55;;;19.70;93.80;;;;;;5052237;28;20032;-80
2023/08/10 01:14:32;;;;;;;1.35;0.32;;;19.70;93.80;;;;;;5051773;28;20037;-81
2023/08/10 01:17:00;;;;;;;1.75;0.40;;;19.70;93.80;;;;;;5053929;28;20041;-81
2023/08/10 01:19:36;;;;;;;1.77;0.47;;;19.60;93.80;;;;;;5053393;28;20025;-81
2023/08/10 01:22:23;;;;;;;1.95;0.30;;;19.60;93.80;;;;;;5053312;28;20063;-79
2023/08/10 01:25:16;;;;;;;2.50;0.20;;;19.60;93.80;;;;;;5053657;28;20083;-80
2023/08/10 01:27:42;;;;;;;1.92;0.40;;;19.60;93.90;;;;;;5049967;28;20047;-81
2023/08/10 01:30:08;;;;;;;1.88;0.40;;;19.60;93.90;;;;;;5053538;28;20440;-81
2023/08/10 01:32:34;;;;;;;1.05;0.30;;;19.60;93.80;;;;;;5053249;28;20033;-81
2023/08/10 01:35:00;;;;;;;3.88;0.70;;;19.70;93.90;;;;;;5055643;28;20111;-81
2023/08/10 01:37:27;;;;;;;1.35;0.30;;;19.70;93.90;;;;;;5057244;28;20151;-81
2023/08/10 01:39:52;;;;;;;2.83;0.35;;;19.70;93.90;;;;;;5056339;28;20039;-81
2023/08/10 01:42:19;;;;;;;2.17;0.40;;;19.70;93.90;;;;;;5056647;28;20104;-81
2023/08/10 01:44:44;;;;;;;1.02;0.30;;;19.60;93.90;;;;;;5057163;28;20107;-81
2023/08/10 01:47:38;;;;;;;2.47;0.55;;;19.60;93.90;;;;;;5055534;28;20540;-81
2023/08/10 01:50:07;;;;;;;2.55;0.35;;;19.60;93.90;;;;;;5045010;28;20041;-81
2023/08/10 01:52:48;;;;;;;2.38;0.32;;;19.60;93.90;;;;;;5055514;28;20029;-81
2023/08/10 01:55:15;;;;;;;1.45;0.20;;;19.60;93.90;;;;;;5056452;28;20090;-81
2023/08/10 01:57:41;;;;;;;2.75;0.40;;;19.60;93.90;;;;;;5056739;28;20040;-81
2023/08/10 02:00:07;;;;;;;1.45;0.28;;;19.60;94.00;;;;;;5056590;28;20112;-81
2023/08/10 02:02:33;;;;;;;1.88;0.50;;;19.60;94.00;;;;;;5056478;28;20093;-81
2023/08/10 02:04:59;;;;;;;1.67;0.30;;;19.60;94.00;;;;;;5056543;28;20030;-81
2023/08/10 02:07:25;;;;;;;1.33;0.30;;;19.60;94.00;;;;;;5056446;28;20024;-80
2023/08/10 02:09:51;;;;;;;3.67;0.40;;;19.60;94.10;;;;;;5055156;28;20386;-80
2023/08/10 02:12:17;;;;;;;0.70;0.28;;;19.60;94.00;;;;;;5055091;28;20029;-80
2023/08/10 02:14:42;;;;;;;1.08;0.40;;;19.60;94.10;;;;;;5056086;28;20028;-80
2023/08/10 02:17:08;;;;;;;2.15;0.50;;;19.60;94.10;;;;;;5055920;28;20371;-81
2023/08/10 02:19:34;;;;;;;2.33;0.40;;;19.50;94.10;;;;;;5056787;28;20071;-80
2023/08/10 02:21:59;;;;;;;2.40;0.40;;;19.50;94.10;;;;;;5055873;28;20033;-81
2023/08/10 02:24:25;;;;;;;1.20;0.40;;;19.50;94.20;;;;;;5055429;28;20079;-81
2023/08/10 02:26:51;;;;;;;1.60;0.50;;;19.40;94.20;;;;;;5056392;28;20469;-81
2023/08/10 02:29:16;;;;;;;2.85;0.43;;;19.40;94.30;;;;;;5055460;28;20043;-81
2023/08/10 02:31:43;;;;;;;3.10;0.50;;;19.40;94.30;;;;;;5055758;28;20385;-81
2023/08/10 02:34:08;;;;;;;1.98;0.60;;;19.40;94.30;;;;;;5055996;28;20029;-81
2023/08/10 02:36:34;;;;;;;1.55;0.50;;;19.30;94.40;;;;;;5054353;28;20060;-81
2023/08/10 02:39:01;;;;;;;1.55;0.30;;;19.30;94.50;;;;;;5056471;28;20029;-81
2023/08/10 02:41:27;;;;;;;1.35;0.40;;;19.30;94.60;;;;;;5055778;28;20029;-81
2023/08/10 02:43:52;;;;;;;1.58;0.20;;;19.40;94.70;;;;;;5055808;28;20027;-81
2023/08/10 02:46:18;;;;;;;1.15;0.30;;;19.40;94.70;;;;;;5055302;28;20473;-81
2023/08/10 02:48:43;;;;;;;2.60;0.55;;;19.30;94.60;;;;;;5054286;28;20389;-81
2023/08/10 02:51:09;;;;;;;1.95;0.40;;;19.30;94.60;;;;;;5055870;28;20033;-81
2023/08/10 02:53:35;;;;;;;1.20;0.30;;;19.10;94.70;;;;;;5056122;28;20037;-80
2023/08/10 02:56:01;;;;;;;1.33;0.30;;;19.10;95.00;;;;;;5054256;28;20044;-81
2023/08/10 02:58:26;;;;;;;2.85;0.30;;;19.10;95.10;;;;;;5055527;28;20033;-81
2023/08/10 03:00:52;;;;;;;1.77;0.30;;;19.10;95.10;;;;;;5054338;28;20527;-81
2023/08/10 03:03:18;;;;;;;2.88;0.20;;;19.10;95.10;;;;;;5054352;28;20484;-81
2023/08/10 03:05:43;;;;;;;1.30;0.30;;;19.10;95.20;;;;;;5055151;28;20039;-81
2023/08/10 03:08:09;;;;;;;3.85;0.40;;;19.10;95.20;;;;;;5055341;28;20029;-81
2023/08/10 03:10:34;;;;;;;1.13;0.32;;;19.20;95.30;;;;;;5055281;28;20044;-81
2023/08/10 03:13:00;;;;;;;1.98;0.40;;;19.20;95.20;;;;;;5055219;28;20040;-81
2023/08/10 03:15:26;;;;;;;3.05;0.47;;;19.10;95.20;;;;;;5055379;28;20033;-80
2023/08/10 03:17:51;;;;;;;1.00;0.30;;;19.10;95.30;;;;;;5055422;28;20034;-80
2023/08/10 03:20:17;;;;;;;0.70;0.30;;;19.10;95.30;;;;;;5054062;28;20067;-80
2023/08/10 03:22:46;;;;;;;2.67;0.40;;;19.20;95.30;;;;;;5055016;28;20032;-80
2023/08/10 03:25:12;;;;;;;4.20;0.40;;;19.20;95.60;;;;;;5055261;28;20377;-80
2023/08/10 03:27:37;;;;;;;3.65;0.45;;;19.10;95.20;;;;;;5053662;28;20033;-80
2023/08/10 03:30:04;;;;;;;1.60;0.30;;;19.10;95.30;;;;;;5055395;28;20029;-80
2023/08/10 03:32:30;;;;;;;0.75;0.28;;;19.20;95.40;;;;;;5055142;28;20050;-81
2023/08/10 03:34:56;;;;;;;1.85;0.32;;;19.20;95.40;;;;;;5037853;28;20033;-81
2023/08/10 03:37:21;;;;;;;1.10;0.20;;;19.20;95.40;;;;;;5054771;28;20504;-81
2023/08/10 03:39:47;;;;;;;1.00;0.30;;;19.10;95.40;;;;;;5053421;28;20029;-80
2023/08/10 03:42:12;;;;;;;1.65;0.30;;;19.20;95.50;;;;;;5054954;28;20035;-80
2023/08/10 03:44:38;;;;;;;1.38;0.30;;;19.10;95.50;;;;;;5036810;28;20071;-81
2023/08/10 03:47:04;;;;;;;2.25;0.32;;;19.20;95.50;;;;;;5070353;28;20446;-81
2023/08/10 03:49:29;;;;;;;2.50;0.30;;;19.20;95.50;;;;;;5055132;28;20108;-81
2023/08/10 03:51:56;;;;;;;0.98;0.20;;;19.30;95.50;;;;;;5054440;28;20040;-81
2023/08/10 03:54:21;;;;;;;0.98;0.20;;;19.30;95.50;;;;;;5054421;28;20033;-81
2023/08/10 03:56:47;;;;;;;1.42;0.30;;;19.30;95.50;;;;;;5052750;28;20043;-82
2023/08/10 03:59:13;;;;;;;3.03;0.30;;;19.30;95.40;;;;;;5054932;28;20073;-81
2023/08/10 04:01:39;;;;;;;1.70;0.40;;;19.30;95.40;;;;;;5054319;28;20032;-81
2023/08/10 04:04:05;;;;;;;3.55;0.57;;;19.30;95.40;;;;;;5054264;28;20036;-81
2023/08/10 04:06:31;;;;;;;1.60;0.30;;;19.30;95.40;;;;;;5054218;28;20037;-81
2023/08/10 04:08:57;;;;;;;2.22;0.20;;;19.30;95.40;;;;;;5036883;28;20041;-81
2023/08/10 04:11:22;;;;;;;1.33;0.20;;;19.40;95.40;;;;;;5053927;28;20033;-81
2023/08/10 04:13:48;;;;;;;1.83;0.20;;;19.30;95.40;;;;;;5054472;28;20028;-81
2023/08/10 04:16:14;;;;;;;2.55;0.50;;;19.30;95.40;;;;;;5054321;28;20461;-81
2023/08/10 04:18:40;;;;;;;2.05;0.28;;;19.40;95.40;;;;;;5053910;28;20519;-81
2023/08/10 04:21:06;;;;;;;2.67;0.40;;;19.30;95.40;;;;;;5053991;28;20025;-81
2023/08/10 04:23:32;;;;;;;1.98;0.40;;;19.30;95.40;;;;;;5053729;28;20461;-80
2023/08/10 04:25:57;;;;;;;3.60;0.40;;;19.30;95.30;;;;;;5052786;28;20112;-81
2023/08/10 04:28:23;;;;;;;1.55;0.40;;;19.20;95.40;;;;;;5053001;28;20373;-80
2023/08/10 04:30:49;;;;;;;3.25;0.47;;;19.20;95.50;;;;;;5052794;28;20068;-81
2023/08/10 04:33:15;;;;;;;3.40;0.40;;;19.10;95.60;;;;;;5054180;28;20060;-81
2023/08/10 04:35:40;;;;;;;1.75;0.40;;;19.10;95.60;;;;;;5053666;28;20047;-81
2023/08/10 04:38:06;;;;;;;3.38;0.50;;;19.10;95.70;;;;;;5054156;28;20045;-81
2023/08/10 04:40:32;;;;;;;1.55;0.50;;;19.00;95.80;;;;;;5052558;28;20025;-81
2023/08/10 04:42:59;;;;;;;5.10;1.00;;;19.00;95.90;;;;;;5053886;28;20043;-81
2023/08/10 04:45:25;;;;;;;1.90;0.60;;;19.10;95.80;;;;;;5053633;28;20037;-79
2023/08/10 04:47:51;;;;;;;2.63;0.73;;;19.00;95.70;;;;;;5053671;28;20112;-81
2023/08/10 04:50:17;;;;;;;2.20;0.70;;;19.00;95.80;;;;;;5052341;28;20100;-80
2023/08/10 04:52:43;;;;;;;1.70;0.57;;;19.00;95.90;;;;;;5053565;28;20075;-81
2023/08/10 04:55:10;;;;;;;4.72;0.77;;;18.90;96.00;;;;;;5053461;28;20056;-81
2023/08/10 04:57:37;;;;;;;3.13;1.00;;;18.90;96.10;;;;;;5052339;28;20028;-81
2023/08/10 05:00:10;;;;;;;4.03;2.50;;;18.90;96.20;;;;;;5054211;28;20031;-81
2023/08/10 05:02:38;;;;;;;5.13;1.77;;;18.90;95.80;;;;;;5054071;28;20029;-81
2023/08/10 05:05:04;;;;;;;5.65;2.38;;;18.70;95.80;;;;;;5053441;28;20025;-81
2023/08/10 05:07:31;;;;;;;3.45;1.40;;;18.60;95.90;;;;;;5052624;28;20050;-81
2023/08/10 05:09:57;;;;;;;3.22;1.17;;;18.50;96.10;;;;;;5056130;28;20029;-81
2023/08/10 05:12:23;;;;;;;4.05;1.30;;;18.50;96.30;;;;;;5057240;28;20031;-81
2023/08/10 05:14:49;;;;;;;5.13;1.40;;;18.40;96.50;;;;;;5057452;28;20048;-81
2023/08/10 05:17:14;;;;;;;1.70;1.10;;;18.40;96.60;;;;;;5055855;28;20571;-80
2023/08/10 05:19:40;;;;;;;1.58;0.93;;;18.40;96.80;;;;;;5057541;28;20029;-81
2023/08/10 05:22:06;;;;;;;3.17;0.85;;;18.40;97.00;;;;;;5056857;28;20033;-80
2023/08/10 05:24:34;;;;;;;1.98;1.00;;;18.50;97.10;;;;;;5055842;28;20059;-81
2023/08/10 05:27:02;;;;;;;1.50;0.63;;;18.50;97.10;;;;;;5056882;28;20474;-81
2023/08/10 05:29:28;;;;;;;2.47;1.13;;;18.60;97.10;;;;;;5072340;28;20037;-81
2023/08/10 05:31:54;;;;;;;3.15;1.67;;;18.60;97.00;;;;;;5057309;28;20029;-81
2023/08/10 05:34:25;;;;;;;5.22;1.23;;;18.70;97.00;;;;;;5057496;28;20116;-81
2023/08/10 05:36:51;;;;;;;1.40;0.90;;;18.70;96.90;;;;;;5056547;28;20057;-81
2023/08/10 05:39:17;;;;;;;2.30;1.30;;;18.70;97.00;;;;;;5056782;28;20033;-81
2023/08/10 05:41:43;;;;;;;5.57;0.98;;;18.70;97.10;;;;;;5056122;28;20045;-81
2023/08/10 05:44:09;;;;;;;4.68;1.20;;;18.70;97.10;;;;;;5056678;28;20450;-81
2023/08/10 05:46:35;;;;;;;4.70;1.13;;;18.80;97.20;;;;;;5056777;28;20036;-81
2023/08/10 05:49:00;;;;;;;3.38;1.45;;;18.80;97.10;;;;;;5055680;28;20102;-81
2023/08/10 05:51:26;;;;;;;3.53;1.10;;;18.90;97.20;;;;;;5056857;28;20083;-81
2023/08/10 05:53:51;;;;;;;4.20;1.67;;;18.90;97.20;;;;;;5057570;28;20033;-81
2023/08/10 05:56:17;;;;;;;3.00;1.63;;;19.00;97.00;;;;;;5055857;28;20029;-81
2023/08/10 05:58:43;;;;;;;3.47;1.73;;;19.00;96.90;;;;;;5040056;28;20041;-81
2023/08/10 06:01:08;;;;;;;2.75;1.02;;;19.00;96.80;;;;;;5055930;28;20473;-81
2023/08/10 06:03:34;;;;;;;4.30;1.80;;;19.00;96.70;;;;;;5057548;28;20033;-81
2023/08/10 06:06:02;;;;;;;3.17;2.17;;;19.00;96.70;;;;;;5055904;28;20453;-81
2023/08/10 06:08:28;;;;;;;6.85;3.00;;;19.00;96.60;;;;;;5056800;28;20064;-81
2023/08/10 06:10:54;;;;;;;3.55;1.35;;;19.00;96.60;;;;;;5056991;28;20029;-81
2023/08/10 06:13:20;;;;;;;3.75;1.48;;;18.90;96.70;;;;;;5056708;28;20029;-80
2023/08/10 06:15:48;;;;;;;5.57;1.75;;;18.90;96.80;;;;;;5055474;28;20457;-81
2023/08/10 06:18:14;;;;;;;4.65;2.25;;;18.90;96.60;;;;;;5055725;28;20032;-81
2023/08/10 06:20:40;;;;;;;6.78;1.95;;;18.90;96.50;;;;;;5054477;28;20342;-81
2023/08/10 06:23:06;;;;;;;2.25;1.63;;;18.90;96.40;;;;;;5056979;28;20033;-81
2023/08/10 06:25:32;;;;;;;6.13;2.65;;;18.90;96.30;;;;;;5056459;28;20124;-81
2023/08/10 06:27:58;;;;;;;4.18;1.92;;;19.00;96.20;;;;;;5056295;28;20057;-80
2023/08/10 06:30:25;;;;;;;6.50;3.25;;;19.00;96.40;;;;;;5056519;28;20036;-81
2023/08/10 06:32:51;;;;;;;4.90;1.90;;;19.00;96.70;;;;;;5056345;28;20366;-81
2023/08/10 06:35:19;;;;;;;4.82;1.60;;;18.90;96.60;;;;;;5054835;28;20029;-81
2023/08/10 06:37:45;;;;;;;3.15;1.55;;;18.90;96.70;;;;;;5055227;28;20057;-81
2023/08/10 06:40:15;;;;;;;6.70;2.88;;;19.00;96.80;;;;;;5055964;28;20454;-81
2023/08/10 06:42:40;;;;;;;4.47;1.50;;;19.10;97.10;;;;;;5056570;28;20025;-81
2023/08/10 06:45:06;;;;;;;6.05;1.73;;;19.10;97.00;;;;;;5056392;28;20029;-81
2023/08/10 06:47:32;;;;;;;3.75;1.70;;;19.20;96.70;;;;;;5056353;28;20029;-81
2023/08/10 06:49:58;;;;;;;5.10;1.98;;;19.30;96.50;;;;;;5056523;28;20480;-81
2023/08/10 06:52:24;;;;;;;5.82;2.65;;;19.30;96.30;;;;;;5055161;28;20036;-82
2023/08/10 06:54:52;;;;;;;4.22;1.75;;;19.30;96.20;;;;;;5055707;28;20025;-81
2023/08/10 06:57:22;;;;;;;3.30;1.15;;;19.40;96.40;;;;;;5054507;28;20037;-81
2023/08/10 06:59:47;;;;;;;5.40;1.70;;;19.40;96.40;;;;;;5055709;28;20033;-81
2023/08/10 07:02:14;;;;;;;3.38;1.60;;;19.50;96.30;;;;;;5055621;28;20075;-81
2023/08/10 07:04:40;;;;;;;4.05;1.40;;;19.50;96.00;;;;;;5054522;28;20029;-81
2023/08/10 07:07:06;;;;;;;2.25;1.42;;;19.60;96.10;;;;;;5054994;28;20100;-81
2023/08/10 07:09:32;;;;;;;3.83;2.25;;;19.70;95.90;;;;;;5054653;28;20069;-81
2023/08/10 07:12:04;;;;;;;5.53;1.90;;;19.80;95.80;;;;;;5054264;28;20430;-81
2023/08/10 07:14:30;;;;;;;3.55;1.85;;;19.80;95.70;;;;;;5054613;28;20116;-81
2023/08/10 07:16:57;;;;;;;4.40;1.60;;;19.90;95.60;;;;;;5055470;28;20557;-82
2023/08/10 07:19:22;;;;;;;3.35;2.22;;;20.00;95.30;;;;;;5055242;28;20478;-82
2023/08/10 07:21:48;;;;;;;3.35;1.25;;;20.10;94.80;;;;;;5055652;28;20040;-81
2023/08/10 07:24:13;;;;;;;7.22;2.47;;;20.10;94.90;;;;;;5054483;28;20029;-80
2023/08/10 07:26:39;;;;;;;4.47;2.08;;;20.10;94.80;;;;;;5055142;28;20040;-81
2023/08/10 07:29:05;;;;;;;4.85;2.03;;;20.20;94.40;;;;;;5055794;28;20365;-82
2023/08/10 07:31:33;;;;;;;5.53;2.10;;;20.20;94.20;;;;;;5053801;28;20037;-81
2023/08/10 07:33:59;;;;;;;4.18;1.55;;;20.30;94.40;;;;;;5054549;28;20028;-81
2023/08/10 07:36:25;;;;;;;3.33;1.60;;;20.40;94.30;;;;;;5054981;28;20044;-82
2023/08/10 07:38:51;;;;;;;4.60;1.80;;;20.40;93.80;;;;;;5054953;28;20057;-81
2023/08/10 07:41:17;;;;;;;2.55;1.10;;;20.30;93.00;;;;;;5053668;28;20061;-81
2023/08/10 07:43:43;;;;;;;4.43;1.13;;;20.40;93.20;;;;;;5054722;28;20040;-81
2023/08/10 07:46:09;;;;;;;3.97;1.40;;;20.40;92.80;;;;;;5054736;28;20028;-82
2023/08/10 07:48:34;;;;;;;2.88;1.20;;;20.50;92.80;;;;;;5037439;28;20036;-81
2023/08/10 07:51:00;;;;;;;4.00;1.27;;;20.40;92.80;;;;;;5053931;28;20025;-82
2023/08/10 07:53:28;;;;;;;2.05;0.85;;;20.40;92.90;;;;;;5055038;28;20029;-82
2023/08/10 07:55:54;;;;;;;3.50;0.90;;;20.50;92.20;;;;;;5054943;28;20033;-81
2023/08/10 07:58:20;;;;;;;3.47;0.75;;;20.50;90.90;;;;;;5054991;28;20060;-82
2023/08/10 08:00:46;;;;;;;3.28;0.90;;;20.60;90.80;;;;;;5055256;28;20032;-81
2023/08/10 08:03:12;;;;;;;2.60;0.93;;;20.70;90.90;;;;;;5053430;28;20078;-81
2023/08/10 08:05:38;;;;;;;2.85;0.90;;;20.70;90.60;;;;;;5054630;28;20087;-82
2023/08/10 08:08:07;;;;;;;2.78;0.82;;;20.80;90.70;;;;;;5054839;28;20032;-82
2023/08/10 08:10:36;;;;;;;3.40;0.57;;;20.90;90.20;;;;;;5054541;28;20025;-81
2023/08/10 08:13:06;;;;;;;1.52;0.70;;;20.90;90.30;;;;;;5053309;28;20507;-82
2023/08/10 08:15:35;;;;;;;3.97;0.60;;;21.00;90.00;;;;;;5053643;28;20091;-82
2023/08/10 08:18:39;;;;;;;0.90;0.45;;;21.10;90.00;;;;;;5036510;28;20029;-81
2023/08/10 08:21:05;;;;;;;3.53;0.60;;;21.20;88.90;;;;;;5054730;28;20037;-82
2023/08/10 08:23:30;;;;;;;2.47;0.70;;;21.30;89.00;;;;;;5053479;28;20033;-82
2023/08/10 08:25:56;;;;;;;2.17;0.50;;;21.40;86.70;;;;;;5054645;28;20032;-81
2023/08/10 08:28:22;;;;;;;1.42;0.40;;;21.40;87.10;;;;;;5054371;28;20033;-81
2023/08/10 08:30:49;;;;;;;3.33;0.43;;;21.50;86.40;;;;;;5052819;28;20526;-82
2023/08/10 08:33:16;;;;;;;0.98;0.40;;;21.50;86.10;;;;;;5053269;28;20029;-83
2023/08/10 08:35:45;;;;;;;2.00;0.43;;;21.60;86.00;;;;;;5054021;28;20491;-81
2023/08/10 08:38:11;;;;;;;1.75;0.40;;;21.70;87.10;;;;;;5054597;28;20441;-82
2023/08/10 08:40:37;;;;;;;2.97;0.40;;;21.80;86.10;;;;;;5053616;28;20056;-82
2023/08/10 08:43:04;;;;;;;2.72;0.40;;;21.80;83.00;;;;;;5053672;28;20489;-82
2023/08/10 08:45:30;;;;;;;2.47;0.40;;;21.90;82.70;;;;;;5054443;28;20104;-82
2023/08/10 08:47:57;;;;;;;2.45;0.40;;;21.90;84.40;;;;;;5053206;28;20025;-82
2023/08/10 08:50:26;;;;;;;2.13;0.30;;;22.00;84.20;;;;;;5053376;28;20037;-82
2023/08/10 08:52:53;;;;;;;2.90;0.40;;;21.90;82.40;;;;;;5055161;28;20037;-82
2023/08/10 08:55:19;;;;;;;2.80;0.40;;;22.00;82.70;;;;;;5053409;28;20033;-80
2023/08/10 08:57:46;;;;;;;3.08;0.40;;;22.00;81.60;;;;;;5054215;28;20044;-83
2023/08/10 09:00:13;;;;;;;4.07;0.40;;;22.10;80.70;;;;;;5053714;28;20048;-82
2023/08/10 09:02:39;;;;;;;2.28;0.40;;;22.10;81.10;;;;;;5054124;28;20057;-82
2023/08/10 09:05:05;;;;;;;1.80;0.70;;;22.00;80.60;;;;;;5055183;28;20110;-82
2023/08/10 09:07:31;;;;;;;2.55;0.40;;;22.00;80.80;;;;;;5054060;28;20201;-82
2023/08/10 09:09:57;;;;;;;3.38;0.30;;;22.00;80.50;;;;;;5036230;28;20037;-82
2023/08/10 09:12:34;;;;;;;2.13;0.55;;;21.80;80.20;;;;;;5053996;28;20092;-82
2023/08/10 09:15:11;;;;;;;2.78;0.50;;;21.80;81.20;;;;;;5054592;28;20469;-82
2023/08/10 09:17:48;;;;;;;3.42;0.43;;;21.90;82.50;;;;;;5054377;28;20129;-82
2023/08/10 09:20:23;;;;;;;2.47;0.52;;;22.00;81.40;;;;;;5053876;28;20059;-80
2023/08/10 09:22:53;;;;;;;2.70;0.50;;;22.10;80.60;;;;;;5054897;28;20028;-83
2023/08/10 09:25:19;;;;;;;3.83;0.50;;;22.20;81.00;;;;;;5054499;28;20451;-83
2023/08/10 09:27:49;;;;;;;2.67;0.45;;;22.30;80.50;;;;;;5054300;28;20029;-82
2023/08/10 09:30:16;;;;;;;1.35;0.40;;;22.40;79.10;;;;;;5054551;28;20055;-82
2023/08/10 09:32:42;;;;;;;2.33;0.55;;;22.50;79.00;;;;;;5054214;28;20025;-83
2023/08/10 09:35:14;;;;;;;4.05;0.70;;;22.50;78.70;;;;;;5054589;28;20351;-82
2023/08/10 09:37:40;;;;;;;2.53;0.50;;;22.50;79.00;;;;;;5054257;28;20049;-83
2023/08/10 09:40:08;;;;;;;2.55;0.50;;;22.40;79.50;;;;;;5053820;28;20496;-82
2023/08/10 09:42:34;;;;;;;2.55;0.50;;;22.30;79.10;;;;;;5053549;28;20035;-82
2023/08/10 09:45:11;;;;;;;0.70;0.40;;;22.20;79.50;;;;;;5053493;28;20124;-82
2023/08/10 09:47:42;;;;;;;1.90;0.30;;;22.10;79.70;;;;;;5053993;28;20114;-82
2023/08/10 09:50:15;;;;;;;1.38;0.50;;;22.00;80.30;;;;;;5053216;28;20187;-82
2023/08/10 09:52:42;;;;;;;1.98;0.60;;;22.10;81.40;;;;;;5054242;28;20033;-82
2023/08/10 09:55:10;;;;;;;1.70;0.60;;;22.10;82.00;;;;;;5055291;28;20059;-82
2023/08/10 09:57:45;;;;;;;2.22;0.95;;;22.10;82.50;;;;;;5057583;28;20106;-83
2023/08/10 10:00:20;;;;;;;3.42;0.60;;;22.30;81.20;;;;;;5057230;28;20055;-83
2023/08/10 10:02:47;;;;;;;5.00;0.57;;;22.40;81.00;;;;;;5058170;28;20040;-83
2023/08/10 10:05:14;;;;;;;3.70;0.75;;;22.60;81.90;;;;;;5058058;28;20104;-83
2023/08/10 10:07:40;;;;;;;2.83;1.00;;;22.80;80.90;;;;;;5057262;28;20060;-83
2023/08/10 10:10:12;;;;;;;2.42;0.88;;;22.90;81.20;;;;;;5057661;28;20056;-82
2023/08/10 10:12:38;;;;;;;3.10;0.77;;;22.90;80.60;;;;;;5058121;28;20076;-82
2023/08/10 10:15:04;;;;;;;1.75;1.13;;;22.90;80.90;;;;;;5057881;28;20445;-83
2023/08/10 10:17:30;;;;;;;4.75;1.15;;;22.90;81.60;;;;;;5057615;28;20033;-83
2023/08/10 10:19:56;;;;;;;4.65;1.40;;;22.90;80.60;;;;;;5058058;28;20041;-83
2023/08/10 10:22:22;;;;;;;5.90;1.27;;;22.80;80.30;;;;;;5056162;28;20124;-83
2023/08/10 10:24:49;;;;;;;2.65;1.23;;;22.90;81.00;;;;;;5057221;28;20037;-84
2023/08/10 10:27:15;;;;;;;2.78;0.80;;;23.00;84.10;;;;;;5039913;28;20033;-83
2023/08/10 10:29:57;;;;;;;5.60;1.20;;;23.20;83.00;;;;;;5056189;28;20370;-83
2023/08/10 10:32:24;;;;;;;3.20;1.05;;;23.40;82.00;;;;;;5057414;28;20029;-83
2023/08/10 10:34:51;;;;;;;4.68;0.90;;;23.60;80.40;;;;;;5057060;28;20437;-84
2023/08/10 10:37:34;;;;;;;1.63;0.68;;;23.70;80.40;;;;;;5057507;28;20056;-83
2023/08/10 10:40:21;;;;;;;4.15;1.00;;;23.90;78.80;;;;;;5056982;28;20346;-83
2023/08/10 10:43:02;;;;;;;2.08;0.63;;;24.00;80.00;;;;;;5057477;28;20484;-84
2023/08/10 10:45:28;;;;;;;1.98;1.02;;;24.20;79.00;;;;;;5057336;28;20052;-83
2023/08/10 10:47:55;;;;;;;2.88;1.15;;;24.20;77.50;;;;;;5058848;28;20404;-84
2023/08/10 10:50:28;;;;;;;2.97;1.00;;;24.30;77.10;;;;;;5056833;28;20052;-84
2023/08/10 10:53:02;;;;;;;3.17;0.77;;;24.30;76.90;;;;;;5056910;28;20036;-83
2023/08/10 10:55:41;;;;;;;1.67;0.70;;;24.20;76.90;;;;;;5055606;28;20052;-84
2023/08/10 10:58:09;;;;;;;4.93;0.65;;;24.30;77.40;;;;;;5057601;28;20029;-83
2023/08/10 11:00:36;;;;;;;1.45;0.50;;;24.30;74.80;;;;;;5056755;28;20070;-85
2023/08/10 11:03:07;;;;;;;3.75;0.80;;;24.30;75.00;;;;;;5056167;28;20083;-83
2023/08/10 11:05:33;;;;;;;2.83;0.60;;;24.30;75.00;;;;;;5059843;28;20509;-82
2023/08/10 11:08:08;;;;;;;3.33;0.80;;;24.30;75.90;;;;;;5060085;28;20029;-82
2023/08/10 11:10:39;;;;;;;3.63;0.82;;;24.40;75.60;;;;;;5061168;28;20115;-83
2023/08/10 11:13:11;;;;;;;4.03;0.60;;;24.40;74.60;;;;;;5055799;28;20040;-83
2023/08/10 11:15:37;;;;;;;3.15;0.63;;;24.50;74.70;;;;;;5055620;28;20037;-82
2023/08/10 11:18:10;;;;;;;3.10;0.60;;;24.40;75.60;;;;;;5056611;28;20120;-83
2023/08/10 11:20:51;;;;;;;3.85;0.60;;;24.30;75.30;;;;;;5056447;28;20028;-84
2023/08/10 11:23:16;;;;;;;3.90;0.93;;;24.20;75.20;;;;;;5056763;28;20068;-83
2023/08/10 11:25:49;;;;;;;3.03;0.80;;;24.10;74.80;;;;;;5071182;28;20065;-83
2023/08/10 11:28:17;;;;;;;5.18;1.23;;;23.80;74.30;;;;;;5055775;28;20112;-83
2023/08/10 11:30:44;;;;;;;3.05;0.57;;;23.70;75.20;;;;;;5055918;28;20078;-82
2023/08/10 11:33:10;;;;;;;1.42;0.85;;;23.80;76.70;;;;;;5056464;28;20024;-84
2023/08/10 11:35:35;;;;;;;1.98;0.60;;;24.00;76.60;;;;;;5055130;28;20033;-83
2023/08/10 11:38:01;;;;;;;2.40;0.57;;;24.00;75.50;;;;;;5055260;28;20068;-83
2023/08/10 11:40:27;;;;;;;1.75;0.40;;;24.10;76.50;;;;;;5055426;28;20051;-83
2023/08/10 11:43:14;;;;;;;1.33;0.55;;;24.30;75.50;;;;;;5056197;28;20032;-83
2023/08/10 11:45:40;;;;;;;4.22;1.10;;;24.50;74.90;;;;;;5055043;28;20039;-84
2023/08/10 11:48:11;;;;;;;2.00;1.10;;;24.60;74.00;;;;;;5054902;28;20114;-83
2023/08/10 11:50:38;;;;;;;2.63;1.38;;;24.70;72.70;;;;;;5054677;28;20025;-82
2023/08/10 11:53:10;;;;;;;1.40;0.77;;;24.70;73.70;;;;;;5055386;28;20025;-82
2023/08/10 11:55:50;;;;;;;1.52;0.60;;;24.80;73.50;;;;;;5055180;28;20086;-83
2023/08/10 11:58:17;;;;;;;2.80;0.70;;;24.90;74.70;;;;;;5054855;28;20025;-84
2023/08/10 12:00:50;;;;;;;2.60;0.70;;;25.00;74.90;;;;;;5053983;28;20035;-83
2023/08/10 12:03:27;;;;;;;2.22;0.80;;;25.20;74.60;;;;;;5053991;28;20385;-83
2023/08/10 12:05:54;;;;;;;3.28;0.80;;;25.40;74.30;;;;;;5054907;28;20040;-83
2023/08/10 12:08:26;;;;;;;1.15;0.65;;;25.50;72.80;;;;;;5053848;28;20032;-82
2023/08/10 12:10:59;;;;;;;4.03;0.70;;;25.50;73.90;;;;;;5055726;28;20040;-82
2023/08/10 12:13:24;;;;;;;3.28;0.60;;;25.70;72.70;;;;;;5054650;28;20427;-84
2023/08/10 12:15:51;;;;;;;3.55;1.13;;;25.70;71.20;;;;;;5053622;28;20037;-83
2023/08/10 12:18:20;;;;;;;3.28;1.00;;;25.60;70.90;;;;;;5052284;28;20029;-82
2023/08/10 12:20:47;;;;;;;1.40;0.57;;;25.70;71.10;;;;;;5054535;28;20496;-83
2023/08/10 12:23:13;;;;;;;2.55;0.80;;;25.70;71.60;;;;;;5054803;28;20032;-81
2023/08/10 12:25:40;;;;;;;1.83;0.70;;;25.90;71.50;;;;;;5052750;28;20029;-83
2023/08/10 12:28:07;;;;;;;3.55;0.77;;;25.90;71.00;;;;;;5054446;28;20033;-84
2023/08/10 12:30:34;;;;;;;3.95;0.95;;;25.80;71.30;;;;;;5054310;28;20133;-84
2023/08/10 12:33:12;;;;;;;2.15;1.05;;;25.60;70.90;;;;;;5052884;28;20082;-83
2023/08/10 12:35:38;;;;;;;3.22;1.02;;;25.50;70.00;;;;;;5053746;28;20044;-83
2023/08/10 12:38:06;;;;;;;2.38;0.95;;;25.30;70.40;;;;;;5052652;28;20106;-82
2023/08/10 12:40:32;;;;;;;3.63;0.60;;;25.40;73.10;;;;;;5052691;28;20033;-83
2023/08/10 12:42:58;;;;;;;2.15;0.65;;;25.40;74.00;;;;;;5052772;28;20032;-83
2023/08/10 12:45:25;;;;;;;3.13;1.10;;;25.60;72.00;;;;;;5054092;28;20079;-83
2023/08/10 12:47:51;;;;;;;1.67;0.50;;;25.80;71.40;;;;;;5054453;28;20037;-83
2023/08/10 12:50:18;;;;;;;1.65;0.38;;;26.00;71.70;;;;;;5052899;28;20029;-83